Time;durP1;ratioP1;P1;durP2;ratioP2;P2;SDS_P1;SDS_P2;PMS_P1;PMS_P2;Temp;Humidity;BMP_temperature;BMP_pressure;BME280_temperature;BME280_humidity;BME280_pressure;Samples;Min_cycle;Max_cycle;Signal;HPM_P1;HPM_P2
2022/12/01 00:01:09;;;;;;;34.85;19.75;;;;;;;;;;4648141;30;20071;-96
2022/12/01 00:03:39;;;;;;;37.72;19.52;;;;;;;;;;4679512;30;20050;-96
2022/12/01 00:06:14;;;;;;;38.27;22.20;;;;;;;;;;4662893;30;20071;-95
2022/12/01 00:11:47;;;;;;;31.58;17.35;;;;;;;;;;4664138;30;20056;-96
2022/12/01 00:14:23;;;;;;;33.35;17.33;;;;;;;;;;4655440;30;20065;-96
2022/12/01 00:16:54;;;;;;;39.22;17.50;;;;;;;;;;4664566;30;20166;-95
2022/12/01 00:19:26;;;;;;;34.05;17.85;;;;;;;;;;4663667;30;20066;-94
2022/12/01 00:22:01;;;;;;;37.97;18.80;;;;;;;;;;4680471;30;20083;-95
2022/12/01 00:24:31;;;;;;;42.00;18.92;;;;;;;;;;4666545;30;20057;-96
2022/12/01 00:27:49;;;;;;;38.35;18.83;;;;;;;;;;4649674;30;20058;-94
2022/12/01 00:30:18;;;;;;;34.95;18.20;;;;;;;;;;4663382;30;20066;-95
2022/12/01 00:32:50;;;;;;;32.72;17.17;;;;;;;;;;4650205;30;20046;-96
2022/12/01 00:35:23;;;;;;;43.63;19.95;;;;;;;;;;4660131;30;20070;-95
2022/12/01 00:37:54;;;;;;;32.17;20.38;;;;;;;;;;4667584;30;20054;-96
2022/12/01 00:40:25;;;;;;;33.60;20.77;;;;;;;;;;4652869;30;20711;-96
2022/12/01 00:42:58;;;;;;;;;;;;;;;;;;4670626;30;20062;-95
2022/12/01 00:45:27;;;;;;;36.95;18.30;;;;;;;;;;4653518;30;19928;-96
2022/12/01 00:48:05;;;;;;;42.50;21.02;;;;;;;;;;4647883;30;20055;-95
2022/12/01 00:50:36;;;;;;;45.83;21.25;;;;;;;;;;4656260;30;20054;-95
2022/12/01 00:53:07;;;;;;;47.38;18.63;;;;;;;;;;4653879;30;20059;-95
2022/12/01 00:55:41;;;;;;;34.60;21.13;;;;;;;;;;4681783;30;20086;-95
2022/12/01 00:58:15;;;;;;;37.00;18.38;;;;;;;;;;4651312;30;20054;-96
2022/12/01 01:00:47;;;;;;;39.20;17.15;;;;;;;;;;4666651;30;20061;-96
2022/12/01 01:03:15;;;;;;;43.22;17.95;;;;;;;;;;4641999;30;20062;-95
2022/12/01 01:06:04;;;;;;;36.03;18.67;;;;;;;;;;4669876;30;20054;-95
2022/12/01 01:08:37;;;;;;;49.53;21.15;;;;;;;;;;4654464;30;20056;-95
2022/12/01 01:11:28;;;;;;;45.25;21.38;;;;;;;;;;4639260;30;20058;-95
2022/12/01 01:13:59;;;;;;;38.85;17.73;;;;;;;;;;4653493;30;20071;-95
2022/12/01 01:16:32;;;;;;;45.47;21.15;;;;;;;;;;4659161;30;20058;-94
2022/12/01 01:22:32;;;;;;;39.15;20.30;;;;;;;;;;4655149;30;20077;-94
2022/12/01 01:25:00;;;;;;;42.50;20.55;;;;;;;;;;4640350;30;20059;-96
2022/12/01 01:28:09;;;;;;;43.88;20.85;;;;;;;;;;4669446;30;20062;-94
2022/12/01 01:30:41;;;;;;;46.38;23.38;;;;;;;;;;4664337;30;20055;-95
2022/12/01 01:33:16;;;;;;;41.45;18.90;;;;;;;;;;4649814;30;20048;-95
2022/12/01 01:39:30;;;;;;;63.90;26.40;;;;;;;;;;4718124;25;20033;-93
2022/12/01 01:42:02;;;;;;;48.42;21.70;;;;;;;;;;4661846;30;20062;-94
2022/12/01 01:44:49;;;;;;;47.70;19.85;;;;;;;;;;4680650;25;20060;-94
2022/12/01 01:47:40;;;;;;;41.88;17.85;;;;;;;;;;4880644;25;20055;-96
2022/12/01 01:50:24;;;;;;;48.45;22.80;;;;;;;;;;4674359;30;20060;-96
2022/12/01 01:53:14;;;;;;;48.80;24.77;;;;;;;;;;4659372;30;20054;-96
2022/12/01 01:55:54;;;;;;;49.08;19.75;;;;;;;;;;4670985;30;20058;-96
2022/12/01 01:58:38;;;;;;;55.88;23.95;;;;;;;;;;4671508;30;20069;-96
2022/12/01 02:01:16;;;;;;;;;;;;;;;;;;4674644;30;20053;-96
2022/12/01 02:03:52;;;;;;;45.38;20.05;;;;;;;;;;4646215;30;19927;-96
2022/12/01 02:06:25;;;;;;;43.40;18.15;;;;;;;;;;4659267;30;20038;-96
2022/12/01 02:09:14;;;;;;;37.45;16.77;;;;;;;;;;4641609;30;20045;-96
2022/12/01 02:12:10;;;;;;;45.97;22.35;;;;;;;;;;4617017;30;20065;-96
2022/12/01 02:14:46;;;;;;;44.92;21.55;;;;;;;;;;4642620;30;20071;-96
2022/12/01 02:17:18;;;;;;;45.00;23.15;;;;;;;;;;4666447;30;20042;-96
2022/12/01 02:20:08;;;;;;;51.42;21.40;;;;;;;;;;4659987;30;20055;-96
2022/12/01 02:22:40;;;;;;;57.42;21.08;;;;;;;;;;4651575;30;20069;-96
2022/12/01 02:25:30;;;;;;;55.15;22.77;;;;;;;;;;4667640;30;20055;-96
2022/12/01 02:28:27;;;;;;;37.20;18.90;;;;;;;;;;4668217;30;20047;-96
2022/12/01 02:31:18;;;;;;;50.50;23.50;;;;;;;;;;4637092;30;20058;-96
2022/12/01 02:34:00;;;;;;;40.92;19.90;;;;;;;;;;4654622;30;20054;-95
2022/12/01 02:36:45;;;;;;;42.85;20.95;;;;;;;;;;4632719;31;20060;-96
2022/12/01 02:39:26;;;;;;;42.83;20.67;;;;;;;;;;4608035;31;20043;-95
2022/12/01 02:42:08;;;;;;;41.75;17.70;;;;;;;;;;4634743;31;20076;-96
2022/12/01 02:44:47;;;;;;;46.63;20.80;;;;;;;;;;4619835;31;20493;-96
2022/12/01 02:47:16;;;;;;;38.63;20.15;;;;;;;;;;4619706;31;20063;-96
2022/12/01 02:49:54;;;;;;;42.45;18.35;;;;;;;;;;4595839;31;1167480;-96
2022/12/01 02:52:28;;;;;;;45.15;21.55;;;;;;;;;;4620798;31;20059;-96
2022/12/01 02:55:03;;;;;;;41.53;18.10;;;;;;;;;;4608062;31;20074;-96
2022/12/01 02:57:37;;;;;;;45.67;23.63;;;;;;;;;;4615569;31;20098;-96
2022/12/01 03:00:16;;;;;;;47.42;19.20;;;;;;;;;;4575784;31;20066;-96
2022/12/01 03:03:14;;;;;;;42.15;22.73;;;;;;;;;;4662860;30;20071;-96
2022/12/01 03:06:17;;;;;;;42.40;19.65;;;;;;;;;;4642597;30;20055;-96
2022/12/01 03:08:49;;;;;;;42.63;17.27;;;;;;;;;;4625619;31;20046;-95
2022/12/01 03:11:52;;;;;;;38.85;18.80;;;;;;;;;;5213650;24;20851;31
2022/12/01 03:14:39;;;;;;;37.13;22.30;;;;;;;;;;4672816;30;20046;-96
2022/12/01 03:17:16;;;;;;;41.67;20.00;;;;;;;;;;4670145;30;20059;-96
2022/12/01 03:20:07;;;;;;;30.23;20.05;;;;;;;;;;4677681;30;20034;-95
2022/12/01 03:22:56;;;;;;;42.97;20.83;;;;;;;;;;4657802;30;20066;-95
2022/12/01 03:25:27;;;;;;;39.45;19.63;;;;;;;;;;4667924;30;20043;-96
2022/12/01 03:28:36;;;;;;;40.60;21.00;;;;;;;;;;4675547;30;20050;-95
2022/12/01 03:31:16;;;;;;;38.67;20.75;;;;;;;;;;4688986;30;20060;-93
2022/12/01 03:34:01;;;;;;;38.03;21.25;;;;;;;;;;4690385;30;20064;-96
2022/12/01 03:36:40;;;;;;;41.05;20.25;;;;;;;;;;4675295;30;20058;-95
2022/12/01 03:39:18;;;;;;;41.95;21.10;;;;;;;;;;4668863;30;20073;-94
2022/12/01 03:41:59;;;;;;;42.70;20.10;;;;;;;;;;4692940;30;20677;-96
2022/12/01 03:44:41;;;;;;;32.30;18.88;;;;;;;;;;4664804;30;20050;-96
2022/12/01 03:47:21;;;;;;;37.78;19.30;;;;;;;;;;4667654;30;20061;-95
2022/12/01 03:51:02;;;;;;;38.70;19.25;;;;;;;;;;4672563;30;20066;-95
2022/12/01 03:54:56;;;;;;;34.10;18.60;;;;;;;;;;4688115;30;20072;-95
2022/12/01 04:07:23;;;;;;;42.42;22.13;;;;;;;;;;4916783;25;20053;-95
2022/12/01 04:09:59;;;;;;;40.75;17.65;;;;;;;;;;4703058;30;20054;-96
2022/12/01 04:12:50;;;;;;;37.80;18.60;;;;;;;;;;4678606;30;20064;-96
2022/12/01 04:15:19;;;;;;;30.45;18.73;;;;;;;;;;4677562;30;20068;-96
2022/12/01 04:17:49;;;;;;;38.85;17.80;;;;;;;;;;4705118;30;20054;-95
2022/12/01 05:09:37;;;;;;;37.17;16.90;;;;;;;;;;4655173;30;20066;-95
2022/12/01 05:12:07;;;;;;;37.80;19.13;;;;;;;;;;4635442;30;20050;-95
2022/12/01 05:14:35;;;;;;;33.42;16.52;;;;;;;;;;4637480;30;20063;-94
2022/12/01 05:17:03;;;;;;;37.30;17.45;;;;;;;;;;4637082;30;20055;-95
2022/12/01 05:22:23;;;;;;;35.72;18.13;;;;;;;;;;4632575;30;20078;-94
2022/12/01 05:25:11;;;;;;;29.85;16.20;;;;;;;;;;4638668;30;20054;-95
2022/12/01 05:27:39;;;;;;;33.83;16.90;;;;;;;;;;4649063;30;20043;-96
2022/12/01 05:30:11;;;;;;;58.00;22.05;;;;;;;;;;4637043;30;20070;-96
2022/12/01 05:32:44;;;;;;;40.83;18.00;;;;;;;;;;4634063;30;20058;-94
2022/12/01 05:35:12;;;;;;;36.50;18.90;;;;;;;;;;4632973;30;20065;-94
2022/12/01 05:37:44;;;;;;;34.10;18.98;;;;;;;;;;4636885;30;20111;-95
2022/12/01 05:40:36;;;;;;;41.33;17.00;;;;;;;;;;4619131;30;20043;-96
2022/12/01 05:48:04;;;;;;;37.53;17.00;;;;;;;;;;5016866;25;20049;-94
2022/12/01 05:50:38;;;;;;;38.78;20.48;;;;;;;;;;4692826;30;20065;-95
2022/12/01 05:53:16;;;;;;;38.97;20.98;;;;;;;;;;4702116;30;20056;-95
2022/12/01 05:55:58;;;;;;;39.88;17.30;;;;;;;;;;4678849;30;20045;-94
2022/12/01 05:58:29;;;;;;;35.55;16.38;;;;;;;;;;4680458;30;20065;-94
2022/12/01 06:01:14;;;;;;;30.92;16.20;;;;;;;;;;4648376;30;20053;-94
2022/12/01 06:03:50;;;;;;;32.20;16.58;;;;;;;;;;4659110;30;20057;-93
2022/12/01 06:06:20;;;;;;;34.08;17.10;;;;;;;;;;4659301;30;20065;-93
2022/12/01 06:08:51;;;;;;;48.05;16.35;;;;;;;;;;4674363;30;20041;-93
2022/12/01 06:11:19;;;;;;;38.65;21.17;;;;;;;;;;4665474;30;20054;-95
2022/12/01 06:13:50;;;;;;;28.27;17.35;;;;;;;;;;4663420;30;20075;-93
2022/12/01 06:16:18;;;;;;;28.40;15.67;;;;;;;;;;4667858;30;20053;-91
2022/12/01 06:18:47;;;;;;;40.38;17.83;;;;;;;;;;4675035;30;20061;-92
2022/12/01 06:21:15;;;;;;;45.50;20.15;;;;;;;;;;4674097;30;20053;-93
2022/12/01 06:23:44;;;;;;;46.10;19.48;;;;;;;;;;4662051;30;20050;-94
2022/12/01 06:26:12;;;;;;;29.70;16.20;;;;;;;;;;4660304;30;20058;-94
2022/12/01 06:28:45;;;;;;;40.35;19.40;;;;;;;;;;4667094;30;20053;-96
2022/12/01 06:31:13;;;;;;;30.35;17.45;;;;;;;;;;4690253;30;20117;-94
2022/12/01 06:33:41;;;;;;;43.53;18.88;;;;;;;;;;4658188;30;20061;-90
2022/12/01 06:36:09;;;;;;;34.25;17.58;;;;;;;;;;4683155;30;20046;-92
2022/12/01 06:38:38;;;;;;;37.22;18.35;;;;;;;;;;4673890;30;20473;-94
2022/12/01 06:41:07;;;;;;;33.08;17.90;;;;;;;;;;4672710;30;20053;-94
2022/12/01 06:43:39;;;;;;;34.95;17.38;;;;;;;;;;4671499;30;20454;-94
2022/12/01 06:46:07;;;;;;;;;;;;;;;;;;4660620;30;20147;-93
2022/12/01 06:48:35;;;;;;;37.03;18.60;;;;;;;;;;4661764;30;19958;-93
2022/12/01 06:51:03;;;;;;;35.80;18.63;;;;;;;;;;4673468;30;20057;-93
2022/12/01 06:53:31;;;;;;;46.30;21.23;;;;;;;;;;4676627;30;20061;-94
2022/12/01 06:56:00;;;;;;;26.92;16.85;;;;;;;;;;4665649;30;20042;-93
2022/12/01 06:58:33;;;;;;;29.27;15.68;;;;;;;;;;4689502;30;20064;-92
2022/12/01 07:01:08;;;;;;;28.17;16.50;;;;;;;;;;4651447;30;20428;-93
2022/12/01 07:03:39;;;;;;;33.03;16.80;;;;;;;;;;4674067;30;20370;-92
2022/12/01 07:06:07;;;;;;;31.58;16.40;;;;;;;;;;4677032;30;20072;-91
2022/12/01 07:08:35;;;;;;;33.78;17.50;;;;;;;;;;4674095;30;20056;-91
2022/12/01 07:11:07;;;;;;;37.28;19.77;;;;;;;;;;4671903;30;20058;-93
2022/12/01 07:13:35;;;;;;;34.72;17.17;;;;;;;;;;4641132;30;20419;-93
2022/12/01 07:16:08;;;;;;;24.45;14.25;;;;;;;;;;4651655;30;20046;-92
2022/12/01 07:18:37;;;;;;;39.00;18.75;;;;;;;;;;4670989;30;20062;-93
2022/12/01 07:21:10;;;;;;;26.58;16.48;;;;;;;;;;4670416;30;20069;-92
2022/12/01 07:23:38;;;;;;;26.10;15.32;;;;;;;;;;4672052;30;20418;-92
2022/12/01 07:26:11;;;;;;;27.42;13.23;;;;;;;;;;4674528;30;20065;-93
2022/12/01 07:28:44;;;;;;;40.60;20.13;;;;;;;;;;4677938;30;20069;-92
2022/12/01 07:31:12;;;;;;;34.40;21.85;;;;;;;;;;4680957;30;20060;-92
2022/12/01 07:33:40;;;;;;;24.90;11.90;;;;;;;;;;4665280;30;20058;-91
2022/12/01 07:36:10;;;;;;;33.83;18.25;;;;;;;;;;4674752;30;20046;-92
2022/12/01 07:38:40;;;;;;;;;;;;;;;;;;4655389;30;20060;-92
2022/12/01 07:41:17;;;;;;;24.80;13.20;;;;;;;;;;4684288;30;19927;-92
2022/12/01 07:43:50;;;;;;;29.45;13.25;;;;;;;;;;4658886;30;20061;-94
2022/12/01 07:46:19;;;;;;;26.73;15.18;;;;;;;;;;4683830;30;20057;-91
2022/12/01 07:48:51;;;;;;;29.98;19.42;;;;;;;;;;4653105;30;20069;-91
2022/12/01 07:51:22;;;;;;;35.30;14.77;;;;;;;;;;4667319;30;20061;-91
2022/12/01 07:53:50;;;;;;;;;;;;;;;;;;4668704;30;20058;-92
2022/12/01 07:56:19;;;;;;;28.38;14.85;;;;;;;;;;4652543;30;19939;-91
2022/12/01 07:58:50;;;;;;;35.95;14.70;;;;;;;;;;4669680;30;20065;-91
2022/12/01 08:01:19;;;;;;;28.05;16.50;;;;;;;;;;4675504;30;20057;-94
2022/12/01 08:03:57;;;;;;;29.00;15.15;;;;;;;;;;4675929;30;20061;-92
2022/12/01 08:06:26;;;;;;;20.77;12.13;;;;;;;;;;4670919;30;20179;-92
2022/12/01 08:08:54;;;;;;;26.48;14.52;;;;;;;;;;4638877;30;20486;-92
2022/12/01 08:11:25;;;;;;;33.15;16.27;;;;;;;;;;4610338;30;20067;-92
2022/12/01 08:13:53;;;;;;;31.55;13.05;;;;;;;;;;4611369;30;20059;-91
2022/12/01 08:16:22;;;;;;;30.33;14.77;;;;;;;;;;4615001;30;20871;-93
2022/12/01 08:18:50;;;;;;;25.83;14.15;;;;;;;;;;4616252;30;20080;-91
2022/12/01 08:21:19;;;;;;;30.70;14.55;;;;;;;;;;4622705;30;20061;-91
2022/12/01 08:23:48;;;;;;;24.10;12.55;;;;;;;;;;4636028;30;20138;-91
2022/12/01 08:26:19;;;;;;;22.67;15.07;;;;;;;;;;4623272;30;20090;-94
2022/12/01 08:28:50;;;;;;;;;;;;;;;;;;4621157;30;20060;-92
2022/12/01 08:31:25;;;;;;;27.23;14.32;;;;;;;;;;4618202;30;20481;-92
2022/12/01 08:33:55;;;;;;;33.40;13.90;;;;;;;;;;4627431;30;20066;-92
2022/12/01 08:36:24;;;;;;;28.02;13.65;;;;;;;;;;4673834;30;20054;-93
2022/12/01 08:38:53;;;;;;;27.45;12.52;;;;;;;;;;4652792;30;20068;-91
2022/12/01 08:41:23;;;;;;;27.40;15.57;;;;;;;;;;4676397;30;20057;-91
2022/12/01 08:43:51;;;;;;;27.40;14.88;;;;;;;;;;4685928;30;20058;-90
2022/12/01 08:46:28;;;;;;;21.55;14.63;;;;;;;;;;4686246;30;20066;-93
2022/12/01 08:48:57;;;;;;;19.10;11.15;;;;;;;;;;4666070;30;20410;-91
2022/12/01 08:51:25;;;;;;;26.52;14.88;;;;;;;;;;4660095;30;20058;-93
2022/12/01 08:53:54;;;;;;;25.23;12.75;;;;;;;;;;4673546;30;20054;-91
2022/12/01 08:56:25;;;;;;;33.20;14.40;;;;;;;;;;4686015;30;20069;-91
2022/12/01 08:59:05;;;;;;;22.45;10.90;;;;;;;;;;4658424;30;20058;-92
2022/12/01 09:01:56;;;;;;;26.13;15.57;;;;;;;;;;4671374;30;20060;-92
2022/12/01 09:04:26;;;;;;;27.05;13.68;;;;;;;;;;4660914;30;20061;-92
2022/12/01 09:06:55;;;;;;;25.88;15.82;;;;;;;;;;4658590;30;20061;-92
2022/12/01 09:09:28;;;;;;;28.38;12.80;;;;;;;;;;4676126;30;20065;-92
2022/12/01 09:11:56;;;;;;;21.80;10.15;;;;;;;;;;4671664;30;20057;-92
2022/12/01 09:14:24;;;;;;;25.38;14.30;;;;;;;;;;4674833;30;20066;-94
2022/12/01 09:16:53;;;;;;;24.35;11.48;;;;;;;;;;4673530;30;20279;-91
2022/12/01 09:19:21;;;;;;;25.10;14.85;;;;;;;;;;4669740;30;20061;-92
2022/12/01 09:21:52;;;;;;;22.43;12.47;;;;;;;;;;4672786;30;20061;-93
2022/12/01 09:24:20;;;;;;;23.83;11.95;;;;;;;;;;4669456;30;20259;-94
2022/12/01 09:26:55;;;;;;;25.65;12.70;;;;;;;;;;4667872;30;20061;-92
2022/12/01 09:29:23;;;;;;;24.48;13.45;;;;;;;;;;4653906;30;20089;-93
2022/12/01 09:31:55;;;;;;;31.27;15.68;;;;;;;;;;4677817;30;21308;-91
2022/12/01 09:34:26;;;;;;;26.35;13.50;;;;;;;;;;4684466;30;20069;-91
2022/12/01 09:36:58;;;;;;;21.33;11.80;;;;;;;;;;4671366;30;20272;-94
2022/12/01 09:39:25;;;;;;;26.13;13.18;;;;;;;;;;4660556;30;20065;-92
2022/12/01 09:41:55;;;;;;;27.80;11.30;;;;;;;;;;4656511;30;20061;-92
2022/12/01 09:44:26;;;;;;;20.92;12.00;;;;;;;;;;4643084;30;20791;-92
2022/12/01 09:47:10;;;;;;;32.15;15.45;;;;;;;;;;4682059;30;20415;-91
2022/12/01 09:49:42;;;;;;;18.08;9.93;;;;;;;;;;4663987;30;20057;-93
2022/12/01 09:52:15;;;;;;;18.05;10.80;;;;;;;;;;4670670;30;20054;-93
2022/12/01 09:54:43;;;;;;;16.90;11.65;;;;;;;;;;4677372;30;20431;-93
2022/12/01 09:57:17;;;;;;;17.63;11.73;;;;;;;;;;4671717;30;20386;-92
2022/12/01 09:59:45;;;;;;;20.42;10.80;;;;;;;;;;4655083;30;20081;-93
2022/12/01 10:02:27;;;;;;;20.08;11.23;;;;;;;;;;4674035;30;20258;-91
2022/12/01 10:04:56;;;;;;;19.23;11.57;;;;;;;;;;4667515;30;20050;-91
2022/12/01 10:07:26;;;;;;;13.82;8.90;;;;;;;;;;4685973;30;20065;-92
2022/12/01 10:09:59;;;;;;;20.55;15.18;;;;;;;;;;4686881;30;20077;-93
2022/12/01 10:12:32;;;;;;;20.27;11.63;;;;;;;;;;4665829;30;20062;-92
2022/12/01 10:15:20;;;;;;;19.63;10.55;;;;;;;;;;4659602;30;20065;-91
2022/12/01 10:18:07;;;;;;;17.38;11.15;;;;;;;;;;4642062;30;20057;-91
2022/12/01 10:20:47;;;;;;;21.33;12.48;;;;;;;;;;4679601;30;20057;-93
2022/12/01 10:23:29;;;;;;;22.05;9.95;;;;;;;;;;4679615;30;20050;-93
2022/12/01 10:25:58;;;;;;;;;;;;;;;;;;4664263;30;20334;-93
2022/12/01 10:28:35;;;;;;;16.90;12.13;;;;;;;;;;4662500;30;19954;-92
2022/12/01 10:31:12;;;;;;;28.67;12.27;;;;;;;;;;4683243;30;20065;-93
2022/12/01 10:33:46;;;;;;;26.90;13.80;;;;;;;;;;4669810;30;20060;-94
2022/12/01 10:36:14;;;;;;;26.25;15.73;;;;;;;;;;4668241;30;20049;-94
2022/12/01 10:38:42;;;;;;;32.38;11.77;;;;;;;;;;4655064;30;20061;-94
2022/12/01 10:41:12;;;;;;;24.70;13.50;;;;;;;;;;4668030;30;20060;-94
2022/12/01 10:43:48;;;;;;;30.23;18.23;;;;;;;;;;4681374;30;20049;-95
2022/12/01 10:46:23;;;;;;;24.08;13.30;;;;;;;;;;4660089;30;20069;-95
2022/12/01 10:48:52;;;;;;;29.45;14.50;;;;;;;;;;4655239;30;20053;-92
2022/12/01 10:51:24;;;;;;;30.55;13.48;;;;;;;;;;4659740;30;20101;-95
2022/12/01 10:53:59;;;;;;;25.58;13.80;;;;;;;;;;4677719;30;20065;-93
2022/12/01 10:56:28;;;;;;;26.30;14.98;;;;;;;;;;4670378;30;20061;-92
2022/12/01 10:58:57;;;;;;;28.88;14.63;;;;;;;;;;4682481;30;20060;-93
2022/12/01 11:01:27;;;;;;;25.45;13.13;;;;;;;;;;4644907;30;20054;-92
2022/12/01 11:04:01;;;;;;;26.35;14.20;;;;;;;;;;4671089;30;20049;-94
2022/12/01 11:06:30;;;;;;;20.02;12.80;;;;;;;;;;4669084;30;20066;-95
2022/12/01 11:09:00;;;;;;;25.58;14.63;;;;;;;;;;4671276;30;20049;-92
2022/12/01 11:11:36;;;;;;;27.35;12.55;;;;;;;;;;4655235;30;20434;-95
2022/12/01 11:14:17;;;;;;;33.65;14.93;;;;;;;;;;4667628;30;20058;-92
2022/12/01 11:16:46;;;;;;;23.80;13.80;;;;;;;;;;4659368;30;20061;-94
2022/12/01 11:19:25;;;;;;;18.70;11.65;;;;;;;;;;4656084;30;20064;-93
2022/12/01 11:21:57;;;;;;;28.95;15.23;;;;;;;;;;4666506;30;20057;-94
2022/12/01 11:24:41;;;;;;;25.90;11.45;;;;;;;;;;4675797;30;20061;-93
2022/12/01 11:27:29;;;;;;;24.92;14.98;;;;;;;;;;4682222;30;20061;-95
2022/12/01 11:30:03;;;;;;;18.85;12.93;;;;;;;;;;4665810;30;20518;-94
2022/12/01 11:32:39;;;;;;;26.75;13.55;;;;;;;;;;4641122;30;20062;-92
2022/12/01 11:35:13;;;;;;;26.50;12.60;;;;;;;;;;4652849;30;20057;-93
2022/12/01 11:37:47;;;;;;;25.02;12.27;;;;;;;;;;4681105;30;20563;-95
2022/12/01 11:40:44;;;;;;;21.48;14.32;;;;;;;;;;4655296;30;20046;-93
2022/12/01 11:43:20;;;;;;;23.05;12.50;;;;;;;;;;4669077;30;20061;-93
2022/12/01 11:45:48;;;;;;;20.02;12.80;;;;;;;;;;4668105;30;20061;-93
2022/12/01 11:48:16;;;;;;;19.17;10.23;;;;;;;;;;4676855;30;20054;-93
2022/12/01 11:50:59;;;;;;;26.35;13.05;;;;;;;;;;4670338;30;20076;-93
2022/12/01 11:53:27;;;;;;;19.23;11.25;;;;;;;;;;4670496;30;20462;-94
2022/12/01 11:56:13;;;;;;;22.08;11.50;;;;;;;;;;4670261;30;20720;-93
2022/12/01 11:58:43;;;;;;;19.38;9.35;;;;;;;;;;4668724;30;20062;-93
2022/12/01 12:01:17;;;;;;;31.45;14.43;;;;;;;;;;4674433;30;20698;-92
2022/12/01 12:04:09;;;;;;;18.67;11.25;;;;;;;;;;4672330;30;20374;-94
2022/12/01 12:06:49;;;;;;;24.73;13.63;;;;;;;;;;4637466;30;20073;-93
2022/12/01 12:09:17;;;;;;;23.77;12.55;;;;;;;;;;4673637;30;20777;-94
2022/12/01 12:11:52;;;;;;;26.88;11.55;;;;;;;;;;4686604;30;20046;-93
2022/12/01 12:14:33;;;;;;;16.08;10.75;;;;;;;;;;4657615;30;20054;-93
2022/12/01 12:17:06;;;;;;;26.58;15.70;;;;;;;;;;4656198;30;20061;-94
2022/12/01 12:19:41;;;;;;;22.33;11.82;;;;;;;;;;4657633;30;20041;-93
2022/12/01 12:22:48;;;;;;;25.50;12.95;;;;;;;;;;4657879;30;20058;-94
2022/12/01 12:25:23;;;;;;;35.88;18.50;;;;;;;;;;4686666;30;20065;-93
2022/12/01 12:27:57;;;;;;;20.67;10.68;;;;;;;;;;4687204;30;20054;-93
2022/12/01 12:30:35;;;;;;;22.52;14.00;;;;;;;;;;4688153;30;20062;-94
2022/12/01 12:33:13;;;;;;;29.38;16.52;;;;;;;;;;4679134;30;20049;-94
2022/12/01 12:35:48;;;;;;;22.77;11.30;;;;;;;;;;4671090;30;20057;-92
2022/12/01 12:38:29;;;;;;;26.85;11.68;;;;;;;;;;4664955;30;20061;-94
2022/12/01 12:41:05;;;;;;;26.98;13.77;;;;;;;;;;4663594;30;20053;-94
2022/12/01 12:43:51;;;;;;;28.25;10.63;;;;;;;;;;4659520;30;20580;-91
2022/12/01 12:46:23;;;;;;;24.20;14.68;;;;;;;;;;4668267;30;20069;-95
2022/12/01 12:48:57;;;;;;;23.25;12.98;;;;;;;;;;4651531;30;20062;-93
2022/12/01 12:52:04;;;;;;;22.70;15.52;;;;;;;;;;4669558;30;20034;-94
2022/12/01 12:55:37;;;;;;;30.73;15.43;;;;;;;;;;4686976;25;20054;-94
2022/12/01 12:58:32;;;;;;;23.63;13.10;;;;;;;;;;4664853;30;20057;-93
2022/12/01 13:01:17;;;;;;;28.20;12.30;;;;;;;;;;4669186;30;20062;-91
2022/12/01 13:04:05;;;;;;;25.55;14.13;;;;;;;;;;4677053;30;20062;-92
2022/12/01 13:06:55;;;;;;;25.77;13.15;;;;;;;;;;4668267;30;20062;-92
2022/12/01 13:09:26;;;;;;;27.60;13.82;;;;;;;;;;4658263;30;20062;-94
2022/12/01 13:12:08;;;;;;;27.55;12.25;;;;;;;;;;4672496;30;20451;-95
2022/12/01 13:14:40;;;;;;;22.83;14.57;;;;;;;;;;4648950;30;20230;-94
2022/12/01 13:17:16;;;;;;;22.70;12.80;;;;;;;;;;4622212;30;20051;-94
2022/12/01 13:19:47;;;;;;;21.10;12.88;;;;;;;;;;4618644;30;20071;-94
2022/12/01 13:22:18;;;;;;;34.97;18.23;;;;;;;;;;4598606;31;20067;-95
2022/12/01 13:24:46;;;;;;;24.57;12.87;;;;;;;;;;4614584;31;20104;-93
2022/12/01 13:27:43;;;;;;;19.13;13.32;;;;;;;;;;4609400;31;20055;-94
2022/12/01 13:30:19;;;;;;;19.00;11.18;;;;;;;;;;4632701;30;20090;-96
2022/12/01 13:33:09;;;;;;;28.65;16.52;;;;;;;;;;4617658;31;20067;-96
2022/12/01 13:36:08;;;;;;;26.40;12.15;;;;;;;;;;4622701;31;20052;-96
2022/12/01 13:39:59;;;;;;;;;;;;;;;;;;4644950;30;20055;-95
2022/12/01 13:43:22;;;;;;;17.90;10.70;;;;;;;;;;4781682;25;19935;-95
2022/12/01 13:46:07;;;;;;;28.13;13.77;;;;;;;;;;4662130;30;20076;-95
2022/12/01 13:52:46;;;;;;;24.08;11.25;;;;;;;;;;4692841;25;20050;-93
2022/12/01 13:55:14;;;;;;;30.85;13.25;;;;;;;;;;4672415;30;20271;-95
2022/12/01 13:57:44;;;;;;;21.75;15.15;;;;;;;;;;4656644;30;20058;-93
2022/12/01 14:00:26;;;;;;;26.23;10.98;;;;;;;;;;4688032;30;20054;-92
2022/12/01 14:03:12;;;;;;;20.95;15.07;;;;;;;;;;4662676;30;20066;-92
2022/12/01 14:05:53;;;;;;;17.33;13.02;;;;;;;;;;4661229;30;20068;-91
2022/12/01 14:08:27;;;;;;;21.05;12.65;;;;;;;;;;4646973;30;20058;-94
2022/12/01 14:11:19;;;;;;;22.02;11.55;;;;;;;;;;4650708;30;20062;-94
2022/12/01 14:13:50;;;;;;;21.45;11.05;;;;;;;;;;4661090;30;20068;-94
2022/12/01 14:16:18;;;;;;;20.48;10.50;;;;;;;;;;4647665;30;20065;-92
2022/12/01 14:18:53;;;;;;;24.60;12.00;;;;;;;;;;4648367;30;20693;-92
2022/12/01 14:21:40;;;;;;;23.00;10.95;;;;;;;;;;4658279;30;20057;-93
2022/12/01 14:24:19;;;;;;;16.90;8.85;;;;;;;;;;4676148;30;20049;-92
2022/12/01 14:26:48;;;;;;;24.85;13.80;;;;;;;;;;4670740;30;20066;-93
2022/12/01 14:29:26;;;;;;;28.25;13.45;;;;;;;;;;4643196;30;20051;-90
2022/12/01 14:31:54;;;;;;;23.50;12.18;;;;;;;;;;4661065;30;20058;-91
2022/12/01 14:34:25;;;;;;;19.58;11.40;;;;;;;;;;4660930;30;20070;-91
2022/12/01 14:36:59;;;;;;;24.50;10.95;;;;;;;;;;4645275;30;20065;-95
2022/12/01 14:39:30;;;;;;;24.38;11.35;;;;;;;;;;4672565;30;20062;-90
2022/12/01 14:42:00;;;;;;;31.75;15.13;;;;;;;;;;4661126;30;20058;-94
2022/12/01 14:44:34;;;;;;;28.15;13.82;;;;;;;;;;4647132;30;20060;-95
2022/12/01 14:47:21;;;;;;;19.55;11.55;;;;;;;;;;4646603;30;20062;-94
2022/12/01 14:49:52;;;;;;;21.55;11.90;;;;;;;;;;4629152;30;20054;-94
2022/12/01 14:52:26;;;;;;;21.90;13.73;;;;;;;;;;4638020;30;20356;-94
2022/12/01 14:55:03;;;;;;;20.35;12.68;;;;;;;;;;4630857;30;20148;-94
2022/12/01 14:57:37;;;;;;;24.42;15.10;;;;;;;;;;4639398;30;20085;-93
2022/12/01 15:00:09;;;;;;;26.65;13.98;;;;;;;;;;4659618;30;20054;-94
2022/12/01 15:02:59;;;;;;;24.55;10.90;;;;;;;;;;4660191;30;20085;-93
2022/12/01 15:05:28;;;;;;;24.58;12.27;;;;;;;;;;4674179;30;20390;-94
2022/12/01 15:07:57;;;;;;;22.27;12.80;;;;;;;;;;4661063;30;20053;-94
2022/12/01 15:10:54;;;;;;;20.92;12.90;;;;;;;;;;4655330;30;20066;-94
2022/12/01 15:13:29;;;;;;;21.33;13.55;;;;;;;;;;4647108;30;20055;-93
2022/12/01 15:15:58;;;;;;;28.60;15.48;;;;;;;;;;4642692;30;20054;-94
2022/12/01 15:18:28;;;;;;;21.45;11.82;;;;;;;;;;4672851;30;20065;-95
2022/12/01 15:21:05;;;;;;;23.05;11.65;;;;;;;;;;4672471;30;20077;-94
2022/12/01 15:23:34;;;;;;;25.98;12.00;;;;;;;;;;4643489;30;20062;-93
2022/12/01 15:26:02;;;;;;;32.22;15.02;;;;;;;;;;4645537;30;20101;-95
2022/12/01 15:28:30;;;;;;;27.20;16.08;;;;;;;;;;4659704;30;20046;-93
2022/12/01 15:30:59;;;;;;;29.42;14.98;;;;;;;;;;4671553;30;20061;-95
2022/12/01 15:33:29;;;;;;;25.02;14.50;;;;;;;;;;4633635;30;20069;-94
2022/12/01 15:36:04;;;;;;;28.45;14.05;;;;;;;;;;4660086;30;20042;-94
2022/12/01 15:38:34;;;;;;;18.55;11.40;;;;;;;;;;4647025;30;20536;-95
2022/12/01 15:41:03;;;;;;;32.67;14.93;;;;;;;;;;4661346;30;20054;-93
2022/12/01 15:43:55;;;;;;;23.30;13.15;;;;;;;;;;4657136;30;20066;-95
2022/12/01 15:46:28;;;;;;;30.50;15.93;;;;;;;;;;4660496;30;20070;-94
2022/12/01 15:49:31;;;;;;;20.02;13.57;;;;;;;;;;4651098;30;20065;-93
2022/12/01 15:52:06;;;;;;;26.85;14.50;;;;;;;;;;4631385;30;20057;-93
2022/12/01 15:54:35;;;;;;;20.35;12.75;;;;;;;;;;4660529;30;20058;-95
2022/12/01 15:57:15;;;;;;;26.42;15.32;;;;;;;;;;4642963;30;20042;-93
2022/12/01 15:59:45;;;;;;;25.75;14.73;;;;;;;;;;4661724;30;20045;-93
2022/12/01 16:02:22;;;;;;;25.33;14.13;;;;;;;;;;4660886;30;20066;-93
2022/12/01 16:04:59;;;;;;;24.05;12.75;;;;;;;;;;4675814;30;20050;-93
2022/12/01 16:07:31;;;;;;;29.23;14.55;;;;;;;;;;4668221;30;20069;-92
2022/12/01 16:10:28;;;;;;;24.42;14.60;;;;;;;;;;4670360;30;20069;-92
2022/12/01 16:13:14;;;;;;;33.15;16.35;;;;;;;;;;4657396;30;20058;-92
2022/12/01 16:15:43;;;;;;;27.15;16.38;;;;;;;;;;4668297;30;20063;-92
2022/12/01 16:18:25;;;;;;;24.55;14.80;;;;;;;;;;4640557;30;20065;-91
2022/12/01 16:20:54;;;;;;;20.40;14.10;;;;;;;;;;4650224;30;20178;-92
2022/12/01 16:23:24;;;;;;;24.80;15.68;;;;;;;;;;4655064;30;20535;-93
2022/12/01 16:25:52;;;;;;;28.08;16.73;;;;;;;;;;4653601;30;20095;-92
2022/12/01 16:28:34;;;;;;;20.50;12.07;;;;;;;;;;4660305;30;20062;-92
2022/12/01 16:31:03;;;;;;;25.20;12.90;;;;;;;;;;4672356;30;20065;-92
2022/12/01 16:33:35;;;;;;;26.63;14.55;;;;;;;;;;4630141;30;20054;-92
2022/12/01 16:36:04;;;;;;;21.48;10.55;;;;;;;;;;4644871;30;20062;-90